sensor_id;sensor_type;location;lat;lon;timestamp;pressure;altitude;pressure_sealevel;temperature;humidity
32873;BME280;19224;52.462;16.898;2022-08-21T00:01:33;70683.06;;;19.23;100.00
32873;BME280;19224;52.462;16.898;2022-08-21T00:04:09;70692.98;;;19.11;100.00
32873;BME280;19224;52.462;16.898;2022-08-21T00:06:40;70699.08;;;19.06;100.00
32873;BME280;19224;52.462;16.898;2022-08-21T00:09:10;70692.98;;;19.15;100.00
32873;BME280;19224;52.462;16.898;2022-08-21T00:11:41;70701.36;;;19.02;100.00
32873;BME280;19224;52.462;16.898;2022-08-21T00:14:13;70702.89;;;19.03;100.00
32873;BME280;19224;52.462;16.898;2022-08-21T00:16:44;70699.08;;;19.07;100.00
32873;BME280;19224;52.462;16.898;2022-08-21T00:19:14;70699.08;;;19.04;100.00
32873;BME280;19224;52.462;16.898;2022-08-21T00:21:45;70696.02;;;19.07;100.00
32873;BME280;19224;52.462;16.898;2022-08-21T00:24:15;70691.45;;;19.12;100.00
32873;BME280;19224;52.462;16.898;2022-08-21T00:26:46;70692.22;;;19.19;100.00
32873;BME280;19224;52.462;16.898;2022-08-21T00:29:17;70685.35;;;19.26;100.00
32873;BME280;19224;52.462;16.898;2022-08-21T00:31:47;70695.27;;;19.19;100.00
32873;BME280;19224;52.462;16.898;2022-08-21T00:34:17;70706.70;;;19.04;100.00
32873;BME280;19224;52.462;16.898;2022-08-21T00:36:48;70715.84;;;18.97;100.00
32873;BME280;19224;52.462;16.898;2022-08-21T00:39:18;70698.31;;;19.08;100.00
32873;BME280;19224;52.462;16.898;2022-08-21T00:41:48;70702.89;;;19.06;100.00
32873;BME280;19224;52.462;16.898;2022-08-21T00:44:18;70703.66;;;19.01;100.00
32873;BME280;19224;52.462;16.898;2022-08-21T00:46:48;70709.75;;;18.92;100.00
32873;BME280;19224;52.462;16.898;2022-08-21T00:49:18;70709.75;;;18.96;100.00
32873;BME280;19224;52.462;16.898;2022-08-21T00:51:55;70706.70;;;19.01;100.00
32873;BME280;19224;52.462;16.898;2022-08-21T00:54:30;70712.80;;;18.93;100.00
32873;BME280;19224;52.462;16.898;2022-08-21T00:57:10;70708.22;;;18.96;100.00
32873;BME280;19224;52.462;16.898;2022-08-21T00:59:37;70706.70;;;18.98;100.00
32873;BME280;19224;52.462;16.898;2022-08-21T01:02:09;70700.60;;;19.04;100.00
32873;BME280;19224;52.462;16.898;2022-08-21T01:04:40;70698.31;;;19.05;100.00
32873;BME280;19224;52.462;16.898;2022-08-21T01:07:11;70702.13;;;18.95;100.00
32873;BME280;19224;52.462;16.898;2022-08-21T01:09:42;70708.22;;;18.91;100.00
32873;BME280;19224;52.462;16.898;2022-08-21T01:12:13;70707.46;;;18.95;100.00
32873;BME280;19224;52.462;16.898;2022-08-21T01:14:45;70705.17;;;18.94;100.00
32873;BME280;19224;52.462;16.898;2022-08-21T01:17:18;70693.73;;;19.05;100.00
32873;BME280;19224;52.462;16.898;2022-08-21T01:19:49;70699.08;;;19.01;100.00
32873;BME280;19224;52.462;16.898;2022-08-21T01:22:19;70697.55;;;19.03;100.00
32873;BME280;19224;52.462;16.898;2022-08-21T01:24:49;70700.60;;;19.02;100.00
32873;BME280;19224;52.462;16.898;2022-08-21T01:27:19;70689.93;;;19.08;100.00
32873;BME280;19224;52.462;16.898;2022-08-21T01:30:07;70692.22;;;19.04;100.00
32873;BME280;19224;52.462;16.898;2022-08-21T01:32:30;70678.49;;;19.16;100.00
32873;BME280;19224;52.462;16.898;2022-08-21T01:35:00;70686.11;;;19.09;100.00
32873;BME280;19224;52.462;16.898;2022-08-21T01:37:30;70683.06;;;19.10;100.00
32873;BME280;19224;52.462;16.898;2022-08-21T01:40:02;70677.73;;;19.19;100.00
32873;BME280;19224;52.462;16.898;2022-08-21T01:42:33;70680.78;;;19.15;100.00
32873;BME280;19224;52.462;16.898;2022-08-21T01:45:05;70675.44;;;19.17;100.00
32873;BME280;19224;52.462;16.898;2022-08-21T01:47:36;70670.11;;;19.20;100.00
32873;BME280;19224;52.462;16.898;2022-08-21T01:50:10;70673.16;;;19.19;100.00
32873;BME280;19224;52.462;16.898;2022-08-21T01:52:42;70665.53;;;19.25;100.00
32873;BME280;19224;52.462;16.898;2022-08-21T01:55:14;70680.78;;;19.10;100.00
32873;BME280;19224;52.462;16.898;2022-08-21T01:57:47;70675.44;;;19.13;100.00
32873;BME280;19224;52.462;16.898;2022-08-21T02:00:22;70692.22;;;19.01;100.00
32873;BME280;19224;52.462;16.898;2022-08-21T02:02:53;70686.88;;;19.05;100.00
32873;BME280;19224;52.462;16.898;2022-08-21T02:05:25;70680.02;;;19.12;100.00
32873;BME280;19224;52.462;16.898;2022-08-21T02:07:55;70689.93;;;19.01;100.00
32873;BME280;19224;52.462;16.898;2022-08-21T02:10:30;70698.31;;;18.89;100.00
32873;BME280;19224;52.462;16.898;2022-08-21T02:13:01;70691.45;;;18.93;100.00
32873;BME280;19224;52.462;16.898;2022-08-21T02:15:31;70695.27;;;18.90;100.00
32873;BME280;19224;52.462;16.898;2022-08-21T02:18:02;70703.66;;;18.77;100.00
32873;BME280;19224;52.462;16.898;2022-08-21T02:20:41;70700.60;;;18.79;100.00
32873;BME280;19224;52.462;16.898;2022-08-21T02:23:12;70709.75;;;18.70;100.00
32873;BME280;19224;52.462;16.898;2022-08-21T02:25:43;70718.14;;;18.59;100.00
32873;BME280;19224;52.462;16.898;2022-08-21T02:28:15;70714.33;;;18.65;100.00
32873;BME280;19224;52.462;16.898;2022-08-21T02:30:48;70714.33;;;18.65;100.00
32873;BME280;19224;52.462;16.898;2022-08-21T02:33:19;70712.03;;;18.62;100.00
32873;BME280;19224;52.462;16.898;2022-08-21T02:35:50;70717.38;;;18.60;100.00
32873;BME280;19224;52.462;16.898;2022-08-21T02:38:26;70715.84;;;18.57;100.00
32873;BME280;19224;52.462;16.898;2022-08-21T02:40:57;70715.09;;;18.57;100.00
32873;BME280;19224;52.462;16.898;2022-08-21T02:43:28;70719.66;;;18.50;100.00
32873;BME280;19224;52.462;16.898;2022-08-21T02:45:59;70722.70;;;18.41;100.00
32873;BME280;19224;52.462;16.898;2022-08-21T02:48:32;70737.20;;;18.36;100.00
32873;BME280;19224;52.462;16.898;2022-08-21T02:51:18;70718.90;;;18.44;100.00
32873;BME280;19224;52.462;16.898;2022-08-21T02:53:50;70728.05;;;18.37;100.00
32873;BME280;19224;52.462;16.898;2022-08-21T02:56:22;70728.05;;;18.37;100.00
32873;BME280;19224;52.462;16.898;2022-08-21T02:58:53;70732.63;;;18.35;100.00
32873;BME280;19224;52.462;16.898;2022-08-21T03:01:23;70735.67;;;18.34;100.00
32873;BME280;19224;52.462;16.898;2022-08-21T03:03:53;70738.72;;;18.31;100.00
32873;BME280;19224;52.462;16.898;2022-08-21T03:06:24;70737.20;;;18.30;100.00
32873;BME280;19224;52.462;16.898;2022-08-21T03:08:54;70739.48;;;18.28;100.00
32873;BME280;19224;52.462;16.898;2022-08-21T03:11:24;70751.68;;;18.22;100.00
32873;BME280;19224;52.462;16.898;2022-08-21T03:13:55;70747.11;;;18.28;100.00
32873;BME280;19224;52.462;16.898;2022-08-21T03:16:25;70760.06;;;18.23;100.00
32873;BME280;19224;52.462;16.898;2022-08-21T03:18:55;70744.82;;;18.26;100.00
32873;BME280;19224;52.462;16.898;2022-08-21T03:21:25;70737.20;;;18.35;100.00
32873;BME280;19224;52.462;16.898;2022-08-21T03:23:58;70747.11;;;18.31;100.00
32873;BME280;19224;52.462;16.898;2022-08-21T03:26:28;70752.44;;;18.26;100.00
32873;BME280;19224;52.462;16.898;2022-08-21T03:28:58;70744.82;;;18.31;100.00
32873;BME280;19224;52.462;16.898;2022-08-21T03:31:28;70744.82;;;18.34;100.00
32873;BME280;19224;52.462;16.898;2022-08-21T03:34:00;70755.49;;;18.31;100.00
32873;BME280;19224;52.462;16.898;2022-08-21T03:36:31;70755.49;;;18.29;100.00
32873;BME280;19224;52.462;16.898;2022-08-21T03:39:01;70753.20;;;18.31;100.00
32873;BME280;19224;52.462;16.898;2022-08-21T03:41:31;70756.25;;;18.24;100.00
32873;BME280;19224;52.462;16.898;2022-08-21T03:44:01;70762.35;;;18.25;100.00
32873;BME280;19224;52.462;16.898;2022-08-21T03:46:31;70761.59;;;18.27;100.00
32873;BME280;19224;52.462;16.898;2022-08-21T03:49:01;70759.30;;;18.26;100.00
32873;BME280;19224;52.462;16.898;2022-08-21T03:51:32;70761.59;;;18.25;100.00
32873;BME280;19224;52.462;16.898;2022-08-21T03:54:03;70766.16;;;18.25;100.00
32873;BME280;19224;52.462;16.898;2022-08-21T03:56:33;70764.64;;;18.27;100.00
32873;BME280;19224;52.462;16.898;2022-08-21T03:59:03;70756.25;;;18.30;100.00
32873;BME280;19224;52.462;16.898;2022-08-21T04:01:34;70759.30;;;18.33;100.00
32873;BME280;19224;52.462;16.898;2022-08-21T04:04:05;70755.49;;;18.37;100.00
32873;BME280;19224;52.462;16.898;2022-08-21T04:06:36;70760.83;;;18.42;100.00
32873;BME280;19224;52.462;16.898;2022-08-21T04:09:06;70766.16;;;18.35;100.00
32873;BME280;19224;52.462;16.898;2022-08-21T04:11:37;70763.11;;;18.41;100.00
32873;BME280;19224;52.462;16.898;2022-08-21T04:14:08;70770.74;;;18.34;100.00
32873;BME280;19224;52.462;16.898;2022-08-21T04:16:40;70766.16;;;18.40;100.00
32873;BME280;19224;52.462;16.898;2022-08-21T04:19:12;70774.55;;;18.41;100.00
32873;BME280;19224;52.462;16.898;2022-08-21T04:21:45;70779.89;;;18.33;100.00
32873;BME280;19224;52.462;16.898;2022-08-21T04:24:15;70775.31;;;18.40;100.00
32873;BME280;19224;52.462;16.898;2022-08-21T04:26:45;70782.17;;;18.36;100.00
32873;BME280;19224;52.462;16.898;2022-08-21T04:29:16;70779.89;;;18.36;100.00
32873;BME280;19224;52.462;16.898;2022-08-21T04:31:46;70763.88;;;18.47;100.00
32873;BME280;19224;52.462;16.898;2022-08-21T04:34:16;70767.69;;;18.43;100.00
32873;BME280;19224;52.462;16.898;2022-08-21T04:36:46;70768.45;;;18.45;100.00
32873;BME280;19224;52.462;16.898;2022-08-21T04:39:16;70773.79;;;18.39;100.00
32873;BME280;19224;52.462;16.898;2022-08-21T04:41:46;70791.33;;;18.30;100.00
32873;BME280;19224;52.462;16.898;2022-08-21T04:44:16;70789.80;;;18.27;100.00
32873;BME280;19224;52.462;16.898;2022-08-21T04:46:47;70789.80;;;18.24;100.00
32873;BME280;19224;52.462;16.898;2022-08-21T04:49:17;70796.66;;;18.21;100.00
32873;BME280;19224;52.462;16.898;2022-08-21T04:51:47;70786.75;;;18.30;100.00
32873;BME280;19224;52.462;16.898;2022-08-21T04:54:20;70784.47;;;18.31;100.00
32873;BME280;19224;52.462;16.898;2022-08-21T04:57:05;70788.27;;;18.29;100.00
32873;BME280;19224;52.462;16.898;2022-08-21T04:59:42;70789.80;;;18.31;100.00
32873;BME280;19224;52.462;16.898;2022-08-21T05:02:09;70795.14;;;18.24;100.00
32873;BME280;19224;52.462;16.898;2022-08-21T05:04:49;70802.76;;;18.24;100.00
32873;BME280;19224;52.462;16.898;2022-08-21T05:07:22;70796.66;;;18.24;100.00
32873;BME280;19224;52.462;16.898;2022-08-21T05:09:52;70789.03;;;18.26;100.00
32873;BME280;19224;52.462;16.898;2022-08-21T05:12:23;70795.14;;;18.29;100.00
32873;BME280;19224;52.462;16.898;2022-08-21T05:14:54;70797.42;;;18.27;100.00
32873;BME280;19224;52.462;16.898;2022-08-21T05:17:24;70789.03;;;18.33;100.00
32873;BME280;19224;52.462;16.898;2022-08-21T05:19:54;70787.52;;;18.32;100.00
32873;BME280;19224;52.462;16.898;2022-08-21T05:22:25;70787.52;;;18.32;100.00
32873;BME280;19224;52.462;16.898;2022-08-21T05:24:57;70781.41;;;18.40;100.00
32873;BME280;19224;52.462;16.898;2022-08-21T05:27:28;70787.52;;;18.39;100.00
32873;BME280;19224;52.462;16.898;2022-08-21T05:29:58;70792.85;;;18.39;100.00
32873;BME280;19224;52.462;16.898;2022-08-21T05:32:29;70791.33;;;18.43;100.00
32873;BME280;19224;52.462;16.898;2022-08-21T05:35:00;70789.03;;;18.46;100.00
32873;BME280;19224;52.462;16.898;2022-08-21T05:37:30;70780.66;;;18.49;100.00
32873;BME280;19224;52.462;16.898;2022-08-21T05:40:02;70778.36;;;18.48;100.00
32873;BME280;19224;52.462;16.898;2022-08-21T05:42:33;70776.08;;;18.48;100.00
32873;BME280;19224;52.462;16.898;2022-08-21T05:45:04;70777.60;;;18.47;100.00
32873;BME280;19224;52.462;16.898;2022-08-21T05:47:34;70776.84;;;18.45;100.00
32873;BME280;19224;52.462;16.898;2022-08-21T05:50:05;70774.55;;;18.47;100.00
32873;BME280;19224;52.462;16.898;2022-08-21T05:52:35;70770.74;;;18.49;100.00
32873;BME280;19224;52.462;16.898;2022-08-21T05:55:06;70772.27;;;18.49;100.00
32873;BME280;19224;52.462;16.898;2022-08-21T05:57:36;70766.16;;;18.55;100.00
32873;BME280;19224;52.462;16.898;2022-08-21T06:00:10;70770.74;;;18.48;100.00
32873;BME280;19224;52.462;16.898;2022-08-21T06:02:41;70763.11;;;18.57;100.00
32873;BME280;19224;52.462;16.898;2022-08-21T06:05:11;70766.93;;;18.54;100.00
32873;BME280;19224;52.462;16.898;2022-08-21T06:07:42;70762.35;;;18.61;100.00
32873;BME280;19224;52.462;16.898;2022-08-21T06:10:12;70758.55;;;18.59;100.00
32873;BME280;19224;52.462;16.898;2022-08-21T06:12:43;70759.30;;;18.59;100.00
32873;BME280;19224;52.462;16.898;2022-08-21T06:15:13;70757.02;;;18.62;100.00
32873;BME280;19224;52.462;16.898;2022-08-21T06:17:43;70752.44;;;18.65;100.00
32873;BME280;19224;52.462;16.898;2022-08-21T06:20:13;70746.34;;;18.68;100.00
32873;BME280;19224;52.462;16.898;2022-08-21T06:22:43;70744.06;;;18.65;100.00
32873;BME280;19224;52.462;16.898;2022-08-21T06:25:13;70740.24;;;18.64;100.00
32873;BME280;19224;52.462;16.898;2022-08-21T06:27:43;70734.91;;;18.72;100.00
32873;BME280;19224;52.462;16.898;2022-08-21T06:30:14;70733.38;;;18.73;100.00
32873;BME280;19224;52.462;16.898;2022-08-21T06:32:46;70724.23;;;18.80;100.00
32873;BME280;19224;52.462;16.898;2022-08-21T06:35:16;70728.05;;;18.74;100.00
32873;BME280;19224;52.462;16.898;2022-08-21T06:37:46;70732.63;;;18.72;100.00
32873;BME280;19224;52.462;16.898;2022-08-21T06:40:16;70729.57;;;18.70;100.00
32873;BME280;19224;52.462;16.898;2022-08-21T06:42:47;70739.48;;;18.67;100.00
32873;BME280;19224;52.462;16.898;2022-08-21T06:45:18;70744.06;;;18.66;100.00
32873;BME280;19224;52.462;16.898;2022-08-21T06:47:48;70741.77;;;18.61;100.00
32873;BME280;19224;52.462;16.898;2022-08-21T06:50:18;70748.63;;;18.65;100.00
32873;BME280;19224;52.462;16.898;2022-08-21T06:52:48;70754.73;;;18.55;100.00
32873;BME280;19224;52.462;16.898;2022-08-21T06:55:18;70789.03;;;18.29;100.00
32873;BME280;19224;52.462;16.898;2022-08-21T06:57:49;70798.19;;;18.25;100.00
32873;BME280;19224;52.462;16.898;2022-08-21T07:00:19;70796.66;;;18.26;100.00
32873;BME280;19224;52.462;16.898;2022-08-21T07:02:50;70811.91;;;18.17;100.00
32873;BME280;19224;52.462;16.898;2022-08-21T07:05:21;70821.06;;;18.10;100.00
32873;BME280;19224;52.462;16.898;2022-08-21T07:07:51;70828.69;;;18.05;100.00
32873;BME280;19224;52.462;16.898;2022-08-21T07:10:22;70825.63;;;18.10;100.00
32873;BME280;19224;52.462;16.898;2022-08-21T07:12:53;70832.50;;;18.06;100.00
32873;BME280;19224;52.462;16.898;2022-08-21T07:15:24;70831.73;;;18.05;100.00
32873;BME280;19224;52.462;16.898;2022-08-21T07:17:55;70834.78;;;18.07;100.00
32873;BME280;19224;52.462;16.898;2022-08-21T07:20:28;70828.69;;;18.14;100.00
32873;BME280;19224;52.462;16.898;2022-08-21T07:23:03;70839.36;;;18.06;100.00
32873;BME280;19224;52.462;16.898;2022-08-21T07:25:33;70837.83;;;18.05;100.00
32873;BME280;19224;52.462;16.898;2022-08-21T07:28:04;70827.16;;;18.11;100.00
32873;BME280;19224;52.462;16.898;2022-08-21T07:30:34;70825.63;;;18.08;100.00
32873;BME280;19224;52.462;16.898;2022-08-21T07:33:05;70818.01;;;18.18;100.00
32873;BME280;19224;52.462;16.898;2022-08-21T07:35:36;70820.30;;;18.16;100.00
32873;BME280;19224;52.462;16.898;2022-08-21T07:38:06;70819.53;;;18.17;100.00
32873;BME280;19224;52.462;16.898;2022-08-21T07:40:38;70807.34;;;18.27;100.00
32873;BME280;19224;52.462;16.898;2022-08-21T07:43:08;70818.01;;;18.18;100.00
32873;BME280;19224;52.462;16.898;2022-08-21T07:45:40;70819.53;;;18.22;100.00
32873;BME280;19224;52.462;16.898;2022-08-21T07:48:10;70818.01;;;18.16;100.00
32873;BME280;19224;52.462;16.898;2022-08-21T07:50:40;70812.67;;;18.23;100.00
32873;BME280;19224;52.462;16.898;2022-08-21T07:53:11;70808.86;;;18.27;100.00
32873;BME280;19224;52.462;16.898;2022-08-21T07:55:42;70801.23;;;18.34;100.00
32873;BME280;19224;52.462;16.898;2022-08-21T07:58:12;70794.38;;;18.47;100.00
32873;BME280;19224;52.462;16.898;2022-08-21T08:00:42;70787.52;;;18.50;100.00
32873;BME280;19224;52.462;16.898;2022-08-21T08:03:12;70767.69;;;18.68;100.00
32873;BME280;19224;52.462;16.898;2022-08-21T08:05:43;70766.93;;;18.67;100.00
32873;BME280;19224;52.462;16.898;2022-08-21T08:08:12;70754.73;;;18.83;100.00
32873;BME280;19224;52.462;16.898;2022-08-21T08:10:45;70738.72;;;18.99;100.00
32873;BME280;19224;52.462;16.898;2022-08-21T08:13:16;70750.16;;;18.89;100.00
32873;BME280;19224;52.462;16.898;2022-08-21T08:15:48;70760.83;;;18.75;100.00
32873;BME280;19224;52.462;16.898;2022-08-21T08:18:18;70762.35;;;18.77;100.00
32873;BME280;19224;52.462;16.898;2022-08-21T08:20:49;70755.49;;;18.83;100.00
32873;BME280;19224;52.462;16.898;2022-08-21T08:23:19;70757.02;;;18.85;100.00
32873;BME280;19224;52.462;16.898;2022-08-21T08:25:50;70779.13;;;18.64;100.00
32873;BME280;19224;52.462;16.898;2022-08-21T08:28:20;70794.38;;;18.48;100.00
32873;BME280;19224;52.462;16.898;2022-08-21T08:30:51;70793.61;;;18.50;100.00
32873;BME280;19224;52.462;16.898;2022-08-21T08:33:21;70808.09;;;18.34;100.00
32873;BME280;19224;52.462;16.898;2022-08-21T08:35:52;70819.53;;;18.29;100.00
32873;BME280;19224;52.462;16.898;2022-08-21T08:38:24;70811.15;;;18.38;100.00
32873;BME280;19224;52.462;16.898;2022-08-21T08:41:16;70804.28;;;18.42;100.00
32873;BME280;19224;52.462;16.898;2022-08-21T08:43:55;70809.63;;;18.47;100.00
32873;BME280;19224;52.462;16.898;2022-08-21T08:46:44;70819.53;;;18.37;100.00
32873;BME280;19224;52.462;16.898;2022-08-21T08:49:31;70814.20;;;18.41;100.00
32873;BME280;19224;52.462;16.898;2022-08-21T08:52:29;70810.38;;;18.40;100.00
32873;BME280;19224;52.462;16.898;2022-08-21T08:55:04;70818.01;;;18.34;100.00
32873;BME280;19224;52.462;16.898;2022-08-21T08:57:36;70809.63;;;18.38;100.00
32873;BME280;19224;52.462;16.898;2022-08-21T09:00:10;70810.38;;;18.40;100.00
32873;BME280;19224;52.462;16.898;2022-08-21T09:02:44;70807.34;;;18.39;100.00
32873;BME280;19224;52.462;16.898;2022-08-21T09:05:28;70798.95;;;18.46;100.00
32873;BME280;19224;52.462;16.898;2022-08-21T09:11:18;70772.27;;;18.74;100.00
32873;BME280;19224;52.462;16.898;2022-08-21T09:14:16;70785.98;;;18.64;100.00
32873;BME280;19224;52.462;16.898;2022-08-21T09:17:12;70804.28;;;18.54;100.00
32873;BME280;19224;52.462;16.898;2022-08-21T09:23:05;70785.23;;;18.68;100.00
32873;BME280;19224;52.462;16.898;2022-08-21T09:28:22;70793.61;;;18.58;100.00
32873;BME280;19224;52.462;16.898;2022-08-21T09:30:55;70804.28;;;18.55;100.00
32873;BME280;19224;52.462;16.898;2022-08-21T09:33:27;70798.19;;;18.57;100.00
32873;BME280;19224;52.462;16.898;2022-08-21T09:35:58;70811.15;;;18.50;100.00
32873;BME280;19224;52.462;16.898;2022-08-21T09:38:36;70807.34;;;18.55;100.00
32873;BME280;19224;52.462;16.898;2022-08-21T09:41:11;70806.58;;;18.58;100.00
32873;BME280;19224;52.462;16.898;2022-08-21T09:43:51;70801.23;;;18.65;100.00
32873;BME280;19224;52.462;16.898;2022-08-21T09:46:26;70799.71;;;18.59;100.00
32873;BME280;19224;52.462;16.898;2022-08-21T09:49:00;70807.34;;;18.62;100.00
32873;BME280;19224;52.462;16.898;2022-08-21T09:51:35;70792.09;;;18.66;100.00
32873;BME280;19224;52.462;16.898;2022-08-21T09:54:14;70792.09;;;18.66;100.00
32873;BME280;19224;52.462;16.898;2022-08-21T09:59:50;70775.31;;;18.79;100.00
32873;BME280;19224;52.462;16.898;2022-08-21T10:02:27;70784.47;;;18.68;100.00
32873;BME280;19224;52.462;16.898;2022-08-21T10:05:14;70776.84;;;18.80;100.00
32873;BME280;19224;52.462;16.898;2022-08-21T10:07:39;70772.27;;;18.88;100.00
32873;BME280;19224;52.462;16.898;2022-08-21T10:10:36;70761.59;;;18.98;100.00
32873;BME280;19224;52.462;16.898;2022-08-21T10:13:21;70769.22;;;18.91;100.00
32873;BME280;19224;52.462;16.898;2022-08-21T10:16:17;70766.16;;;18.93;100.00
32873;BME280;19224;52.462;16.898;2022-08-21T10:25:33;70757.78;;;19.14;100.00
32873;BME280;19224;52.462;16.898;2022-08-21T10:28:17;70770.74;;;19.06;100.00
32873;BME280;19224;52.462;16.898;2022-08-21T10:36:52;100063.28;;;18.96;100.00
32873;BME280;19224;52.462;16.898;2022-08-21T10:39:43;100061.67;;;18.94;100.00
32873;BME280;19224;52.462;16.898;2022-08-21T10:42:39;100063.02;;;18.99;100.00
32873;BME280;19224;52.462;16.898;2022-08-21T10:47:56;100059.55;;;19.03;100.00
32873;BME280;19224;52.462;16.898;2022-08-21T10:50:44;100052.00;;;18.95;100.00
32873;BME280;19224;52.462;16.898;2022-08-21T10:53:42;100052.88;;;19.01;100.00
32873;BME280;19224;52.462;16.898;2022-08-21T10:56:31;100047.77;;;19.08;100.00
32873;BME280;19224;52.462;16.898;2022-08-21T10:59:35;100045.75;;;19.15;100.00
32873;BME280;19224;52.462;16.898;2022-08-21T11:05:14;100049.23;;;19.23;100.00
32873;BME280;19224;52.462;16.898;2022-08-21T11:07:58;100047.35;;;19.34;100.00
32873;BME280;19224;52.462;16.898;2022-08-21T11:13:37;100046.45;;;19.39;100.00
32873;BME280;19224;52.462;16.898;2022-08-21T11:24:59;100039.58;;;19.50;100.00
32873;BME280;19224;52.462;16.898;2022-08-21T11:27:49;100042.31;;;19.50;100.00
32873;BME280;19224;52.462;16.898;2022-08-21T11:30:18;100039.89;;;19.62;100.00
32873;BME280;19224;52.462;16.898;2022-08-21T11:36:44;100048.61;;;19.61;100.00
32873;BME280;19224;52.462;16.898;2022-08-21T11:39:32;100044.31;;;19.48;100.00
32873;BME280;19224;52.462;16.898;2022-08-21T11:45:30;100031.38;;;19.50;100.00
32873;BME280;19224;52.462;16.898;2022-08-21T11:48:10;100030.63;;;19.53;100.00
32873;BME280;19224;52.462;16.898;2022-08-21T11:50:40;100013.77;;;19.43;100.00
32873;BME280;19224;52.462;16.898;2022-08-21T11:53:32;100009.61;;;19.54;100.00
32873;BME280;19224;52.462;16.898;2022-08-21T11:56:20;100014.02;;;19.46;100.00
32873;BME280;19224;52.462;16.898;2022-08-21T11:58:52;99993.89;;;19.47;100.00
32873;BME280;19224;52.462;16.898;2022-08-21T12:01:37;99995.28;;;19.41;100.00
32873;BME280;19224;52.462;16.898;2022-08-21T12:04:29;100006.70;;;19.46;100.00
32873;BME280;19224;52.462;16.898;2022-08-21T12:07:28;100016.84;;;19.55;100.00
32873;BME280;19224;52.462;16.898;2022-08-21T12:09:56;100019.20;;;19.48;100.00
32873;BME280;19224;52.462;16.898;2022-08-21T12:12:36;100029.92;;;19.46;100.00
32873;BME280;19224;52.462;16.898;2022-08-21T12:18:18;100036.48;;;19.49;100.00
32873;BME280;19224;52.462;16.898;2022-08-21T12:20:44;100042.89;;;19.33;100.00
32873;BME280;19224;52.462;16.898;2022-08-21T12:34:46;100062.61;;;19.31;100.00
32873;BME280;19224;52.462;16.898;2022-08-21T12:40:31;100057.95;;;19.22;100.00
32873;BME280;19224;52.462;16.898;2022-08-21T12:43:03;100063.26;;;19.24;100.00
32873;BME280;19224;52.462;16.898;2022-08-21T12:45:42;100055.68;;;19.27;100.00
32873;BME280;19224;52.462;16.898;2022-08-21T12:48:29;100056.05;;;19.28;100.00
32873;BME280;19224;52.462;16.898;2022-08-21T12:51:18;100062.09;;;19.43;100.00
32873;BME280;19224;52.462;16.898;2022-08-21T12:53:57;100059.74;;;19.38;100.00
32873;BME280;19224;52.462;16.898;2022-08-21T12:56:31;100070.00;;;19.51;100.00
32873;BME280;19224;52.462;16.898;2022-08-21T12:59:05;100074.25;;;19.50;100.00
32873;BME280;19224;52.462;16.898;2022-08-21T13:01:51;100070.61;;;19.54;100.00
32873;BME280;19224;52.462;16.898;2022-08-21T13:04:41;100071.00;;;19.50;100.00
32873;BME280;19224;52.462;16.898;2022-08-21T13:07:13;100074.84;;;19.48;100.00
32873;BME280;19224;52.462;16.898;2022-08-21T13:09:53;100065.80;;;19.47;100.00
32873;BME280;19224;52.462;16.898;2022-08-21T13:12:25;100068.53;;;19.47;100.00
32873;BME280;19224;52.462;16.898;2022-08-21T13:15:00;100075.23;;;19.43;100.00
32873;BME280;19224;52.462;16.898;2022-08-21T13:17:35;100066.78;;;19.52;100.00
32873;BME280;19224;52.462;16.898;2022-08-21T13:20:18;100063.80;;;19.49;100.00
32873;BME280;19224;52.462;16.898;2022-08-21T13:22:43;100073.77;;;19.39;100.00
32873;BME280;19224;52.462;16.898;2022-08-21T13:25:17;100067.65;;;19.47;100.00
32873;BME280;19224;52.462;16.898;2022-08-21T13:28:11;100073.73;;;19.50;100.00
32873;BME280;19224;52.462;16.898;2022-08-21T13:30:52;100090.39;;;19.47;100.00
32873;BME280;19224;52.462;16.898;2022-08-21T13:33:26;100087.08;;;19.16;100.00
32873;BME280;19224;52.462;16.898;2022-08-21T13:36:14;100099.29;;;18.96;100.00
32873;BME280;19224;52.462;16.898;2022-08-21T13:38:45;100094.83;;;18.89;100.00
32873;BME280;19224;52.462;16.898;2022-08-21T13:41:24;100084.52;;;18.76;100.00
32873;BME280;19224;52.462;16.898;2022-08-21T13:44:13;100095.69;;;18.68;100.00
32873;BME280;19224;52.462;16.898;2022-08-21T13:46:37;100096.32;;;18.66;100.00
32873;BME280;19224;52.462;16.898;2022-08-21T13:49:09;100097.57;;;18.56;100.00
32873;BME280;19224;52.462;16.898;2022-08-21T13:51:41;100105.60;;;18.47;100.00
32873;BME280;19224;52.462;16.898;2022-08-21T13:54:35;100103.61;;;18.43;100.00
32873;BME280;19224;52.462;16.898;2022-08-21T13:57:18;100105.75;;;18.45;100.00
32873;BME280;19224;52.462;16.898;2022-08-21T13:59:49;100108.52;;;18.27;100.00
32873;BME280;19224;52.462;16.898;2022-08-21T14:02:24;100104.73;;;18.35;100.00
32873;BME280;19224;52.462;16.898;2022-08-21T14:05:00;100105.43;;;18.26;100.00
32873;BME280;19224;52.462;16.898;2022-08-21T14:07:38;100114.75;;;18.29;100.00
32873;BME280;19224;52.462;16.898;2022-08-21T14:10:17;100116.02;;;18.36;100.00
32873;BME280;19224;52.462;16.898;2022-08-21T14:13:05;100114.13;;;18.31;100.00
32873;BME280;19224;52.462;16.898;2022-08-21T14:15:36;100110.05;;;18.37;100.00
32873;BME280;19224;52.462;16.898;2022-08-21T14:18:18;100116.14;;;18.46;100.00
32873;BME280;19224;52.462;16.898;2022-08-21T14:20:49;100116.76;;;18.38;100.00